sensor_id;sensor_type;location;lat;lon;timestamp;temperature;humidity
76956;DHT22;65894;53.206;-6.108;2023-02-24T00:01:58;19.53;53.87
76956;DHT22;65894;53.206;-6.108;2023-02-24T00:04:36;19.54;53.73
76956;DHT22;65894;53.206;-6.108;2023-02-24T00:07:03;19.51;54.10
76956;DHT22;65894;53.206;-6.108;2023-02-24T00:09:30;19.53;53.80
76956;DHT22;65894;53.206;-6.108;2023-02-24T00:12:01;19.51;53.93
76956;DHT22;65894;53.206;-6.108;2023-02-24T00:14:29;19.53;53.91
76956;DHT22;65894;53.206;-6.108;2023-02-24T00:16:56;19.51;53.99
76956;DHT22;65894;53.206;-6.108;2023-02-24T00:19:25;19.50;54.11
76956;DHT22;65894;53.206;-6.108;2023-02-24T00:21:51;19.53;54.07
76956;DHT22;65894;53.206;-6.108;2023-02-24T00:24:19;19.50;54.27
76956;DHT22;65894;53.206;-6.108;2023-02-24T00:26:45;19.50;54.01
76956;DHT22;65894;53.206;-6.108;2023-02-24T00:29:13;19.47;53.83
76956;DHT22;65894;53.206;-6.108;2023-02-24T00:31:39;19.50;53.88
76956;DHT22;65894;53.206;-6.108;2023-02-24T00:34:08;19.49;53.88
76956;DHT22;65894;53.206;-6.108;2023-02-24T00:36:34;19.49;53.87
76956;DHT22;65894;53.206;-6.108;2023-02-24T00:39:03;19.47;53.80
76956;DHT22;65894;53.206;-6.108;2023-02-24T00:41:36;19.46;53.92
76956;DHT22;65894;53.206;-6.108;2023-02-24T00:44:05;19.47;54.15
76956;DHT22;65894;53.206;-6.108;2023-02-24T00:46:35;19.47;53.97
76956;DHT22;65894;53.206;-6.108;2023-02-24T00:49:02;19.50;53.73
76956;DHT22;65894;53.206;-6.108;2023-02-24T00:51:36;19.46;53.82
76956;DHT22;65894;53.206;-6.108;2023-02-24T00:54:03;19.44;53.72
76956;DHT22;65894;53.206;-6.108;2023-02-24T00:56:29;19.46;53.85
76956;DHT22;65894;53.206;-6.108;2023-02-24T00:58:57;19.46;53.86
76956;DHT22;65894;53.206;-6.108;2023-02-24T01:01:30;19.46;53.75
76956;DHT22;65894;53.206;-6.108;2023-02-24T01:03:59;19.44;53.96
76956;DHT22;65894;53.206;-6.108;2023-02-24T01:06:31;19.46;53.90
76956;DHT22;65894;53.206;-6.108;2023-02-24T01:08:59;19.41;53.87
76956;DHT22;65894;53.206;-6.108;2023-02-24T01:11:31;19.43;54.07
76956;DHT22;65894;53.206;-6.108;2023-02-24T01:14:17;19.43;53.88
76956;DHT22;65894;53.206;-6.108;2023-02-24T01:16:44;19.40;54.00
76956;DHT22;65894;53.206;-6.108;2023-02-24T01:19:20;19.43;53.75
76956;DHT22;65894;53.206;-6.108;2023-02-24T01:21:47;19.44;53.76
76956;DHT22;65894;53.206;-6.108;2023-02-24T01:24:17;19.44;53.97
76956;DHT22;65894;53.206;-6.108;2023-02-24T01:26:43;19.43;53.81
76956;DHT22;65894;53.206;-6.108;2023-02-24T01:29:08;19.41;53.79
76956;DHT22;65894;53.206;-6.108;2023-02-24T01:31:38;19.41;53.82
76956;DHT22;65894;53.206;-6.108;2023-02-24T01:34:07;19.41;53.85
76956;DHT22;65894;53.206;-6.108;2023-02-24T01:36:36;19.41;53.59
76956;DHT22;65894;53.206;-6.108;2023-02-24T01:39:02;19.40;53.75
76956;DHT22;65894;53.206;-6.108;2023-02-24T01:41:30;19.40;53.63
76956;DHT22;65894;53.206;-6.108;2023-02-24T01:44:05;19.38;53.73
76956;DHT22;65894;53.206;-6.108;2023-02-24T01:46:42;19.41;53.85
76956;DHT22;65894;53.206;-6.108;2023-02-24T01:49:16;19.40;53.82
76956;DHT22;65894;53.206;-6.108;2023-02-24T01:54:15;19.38;53.94
76956;DHT22;65894;53.206;-6.108;2023-02-24T01:56:45;19.37;53.75
76956;DHT22;65894;53.206;-6.108;2023-02-24T01:59:11;19.35;53.69
76956;DHT22;65894;53.206;-6.108;2023-02-24T02:01:38;19.40;53.95
76956;DHT22;65894;53.206;-6.108;2023-02-24T02:04:15;19.41;53.89
76956;DHT22;65894;53.206;-6.108;2023-02-24T02:06:44;19.37;53.82
76956;DHT22;65894;53.206;-6.108;2023-02-24T02:09:10;19.38;53.73
76956;DHT22;65894;53.206;-6.108;2023-02-24T02:11:36;19.37;54.08
76956;DHT22;65894;53.206;-6.108;2023-02-24T02:14:02;19.37;53.63
76956;DHT22;65894;53.206;-6.108;2023-02-24T02:27:26;19.35;53.69
76956;DHT22;65894;53.206;-6.108;2023-02-24T02:30:10;19.34;53.87
76956;DHT22;65894;53.206;-6.108;2023-02-24T02:37:51;19.34;53.57
76956;DHT22;65894;53.206;-6.108;2023-02-24T02:40:32;19.33;53.74
76956;DHT22;65894;53.206;-6.108;2023-02-24T02:43:14;19.34;53.61
76956;DHT22;65894;53.206;-6.108;2023-02-24T02:45:47;19.35;53.60
76956;DHT22;65894;53.206;-6.108;2023-02-24T02:48:18;19.33;53.52
76956;DHT22;65894;53.206;-6.108;2023-02-24T02:50:54;19.31;53.73
76956;DHT22;65894;53.206;-6.108;2023-02-24T02:53:23;19.33;53.46
76956;DHT22;65894;53.206;-6.108;2023-02-24T02:56:02;19.31;53.88
76956;DHT22;65894;53.206;-6.108;2023-02-24T02:58:36;19.33;53.56
76956;DHT22;65894;53.206;-6.108;2023-02-24T03:01:04;19.30;53.56
76956;DHT22;65894;53.206;-6.108;2023-02-24T03:03:35;19.33;53.71
76956;DHT22;65894;53.206;-6.108;2023-02-24T03:06:23;19.31;53.54
76956;DHT22;65894;53.206;-6.108;2023-02-24T03:09:12;19.33;53.57
76956;DHT22;65894;53.206;-6.108;2023-02-24T03:11:42;19.34;53.92
76956;DHT22;65894;53.206;-6.108;2023-02-24T03:14:11;19.30;53.58
76956;DHT22;65894;53.206;-6.108;2023-02-24T03:16:40;19.28;53.61
76956;DHT22;65894;53.206;-6.108;2023-02-24T03:19:09;19.28;53.47
76956;DHT22;65894;53.206;-6.108;2023-02-24T03:21:38;19.31;53.59
76956;DHT22;65894;53.206;-6.108;2023-02-24T03:24:05;19.30;53.62
76956;DHT22;65894;53.206;-6.108;2023-02-24T03:26:41;19.28;53.69
76956;DHT22;65894;53.206;-6.108;2023-02-24T03:29:16;19.28;53.65
76956;DHT22;65894;53.206;-6.108;2023-02-24T03:34:49;19.28;53.71
76956;DHT22;65894;53.206;-6.108;2023-02-24T03:37:12;19.27;53.57
76956;DHT22;65894;53.206;-6.108;2023-02-24T03:39:38;19.28;53.61
76956;DHT22;65894;53.206;-6.108;2023-02-24T03:42:16;19.28;53.59
76956;DHT22;65894;53.206;-6.108;2023-02-24T03:44:43;19.27;53.55
76956;DHT22;65894;53.206;-6.108;2023-02-24T03:47:10;19.28;53.76
76956;DHT22;65894;53.206;-6.108;2023-02-24T03:49:37;19.24;53.45
76956;DHT22;65894;53.206;-6.108;2023-02-24T03:54:58;19.26;53.60
76956;DHT22;65894;53.206;-6.108;2023-02-24T03:58:14;19.27;53.51
76956;DHT22;65894;53.206;-6.108;2023-02-24T04:00:39;19.27;53.49
76956;DHT22;65894;53.206;-6.108;2023-02-24T04:08:32;19.24;53.71
76956;DHT22;65894;53.206;-6.108;2023-02-24T04:11:13;19.24;53.45
76956;DHT22;65894;53.206;-6.108;2023-02-24T04:13:48;19.27;53.50
76956;DHT22;65894;53.206;-6.108;2023-02-24T04:16:23;19.24;53.47
76956;DHT22;65894;53.206;-6.108;2023-02-24T04:18:59;19.26;53.50
76956;DHT22;65894;53.206;-6.108;2023-02-24T04:21:29;19.24;53.46
76956;DHT22;65894;53.206;-6.108;2023-02-24T04:24:03;19.23;53.68
76956;DHT22;65894;53.206;-6.108;2023-02-24T04:26:37;19.24;53.68
76956;DHT22;65894;53.206;-6.108;2023-02-24T04:29:08;19.26;53.60
76956;DHT22;65894;53.206;-6.108;2023-02-24T04:32:02;19.23;53.51
76956;DHT22;65894;53.206;-6.108;2023-02-24T04:34:29;19.22;53.66
76956;DHT22;65894;53.206;-6.108;2023-02-24T04:36:58;19.22;53.50
76956;DHT22;65894;53.206;-6.108;2023-02-24T04:39:27;19.27;53.61
76956;DHT22;65894;53.206;-6.108;2023-02-24T04:41:55;19.23;53.74
76956;DHT22;65894;53.206;-6.108;2023-02-24T04:44:22;19.22;53.61
76956;DHT22;65894;53.206;-6.108;2023-02-24T04:46:49;19.22;53.51
76956;DHT22;65894;53.206;-6.108;2023-02-24T04:49:16;19.22;53.65
76956;DHT22;65894;53.206;-6.108;2023-02-24T04:51:43;19.22;53.79
76956;DHT22;65894;53.206;-6.108;2023-02-24T04:54:13;19.22;53.54
76956;DHT22;65894;53.206;-6.108;2023-02-24T04:56:48;19.20;53.65
76956;DHT22;65894;53.206;-6.108;2023-02-24T04:59:17;19.20;53.65
76956;DHT22;65894;53.206;-6.108;2023-02-24T05:01:43;19.20;53.73
76956;DHT22;65894;53.206;-6.108;2023-02-24T05:04:11;19.19;53.83
76956;DHT22;65894;53.206;-6.108;2023-02-24T05:06:38;19.20;53.63
76956;DHT22;65894;53.206;-6.108;2023-02-24T05:09:06;19.20;53.61
76956;DHT22;65894;53.206;-6.108;2023-02-24T05:11:42;19.20;53.61
76956;DHT22;65894;53.206;-6.108;2023-02-24T05:14:10;19.19;53.60
76956;DHT22;65894;53.206;-6.108;2023-02-24T05:16:40;19.19;53.67
76956;DHT22;65894;53.206;-6.108;2023-02-24T05:19:07;19.19;53.55
76956;DHT22;65894;53.206;-6.108;2023-02-24T05:21:51;19.20;53.71
76956;DHT22;65894;53.206;-6.108;2023-02-24T05:24:16;19.19;53.54
76956;DHT22;65894;53.206;-6.108;2023-02-24T05:26:42;19.17;53.60
76956;DHT22;65894;53.206;-6.108;2023-02-24T05:29:07;19.20;53.67
76956;DHT22;65894;53.206;-6.108;2023-02-24T05:31:33;19.19;53.61
76956;DHT22;65894;53.206;-6.108;2023-02-24T05:34:05;19.16;53.70
76956;DHT22;65894;53.206;-6.108;2023-02-24T05:36:37;19.16;53.64
76956;DHT22;65894;53.206;-6.108;2023-02-24T05:39:05;19.16;53.70
76956;DHT22;65894;53.206;-6.108;2023-02-24T05:41:35;19.16;53.79
76956;DHT22;65894;53.206;-6.108;2023-02-24T05:44:05;19.17;53.72
76956;DHT22;65894;53.206;-6.108;2023-02-24T05:46:36;19.16;53.60
76956;DHT22;65894;53.206;-6.108;2023-02-24T05:49:05;19.14;53.59
76956;DHT22;65894;53.206;-6.108;2023-02-24T05:51:35;19.17;53.65
76956;DHT22;65894;53.206;-6.108;2023-02-24T05:54:05;19.14;53.68
76956;DHT22;65894;53.206;-6.108;2023-02-24T05:56:36;19.14;53.67
76956;DHT22;65894;53.206;-6.108;2023-02-24T05:59:04;19.17;53.65
76956;DHT22;65894;53.206;-6.108;2023-02-24T06:01:34;19.16;53.84
76956;DHT22;65894;53.206;-6.108;2023-02-24T06:04:05;19.16;53.72
76956;DHT22;65894;53.206;-6.108;2023-02-24T06:06:39;19.14;53.77
76956;DHT22;65894;53.206;-6.108;2023-02-24T06:09:12;19.14;53.97
76956;DHT22;65894;53.206;-6.108;2023-02-24T06:11:41;19.14;53.66
76956;DHT22;65894;53.206;-6.108;2023-02-24T06:14:08;19.14;53.68
76956;DHT22;65894;53.206;-6.108;2023-02-24T06:16:36;19.16;53.96
76956;DHT22;65894;53.206;-6.108;2023-02-24T06:19:03;19.14;53.66
76956;DHT22;65894;53.206;-6.108;2023-02-24T06:21:29;19.12;53.69
76956;DHT22;65894;53.206;-6.108;2023-02-24T06:23:56;19.10;53.86
76956;DHT22;65894;53.206;-6.108;2023-02-24T06:26:22;19.12;53.79
76956;DHT22;65894;53.206;-6.108;2023-02-24T06:28:51;19.12;53.56
76956;DHT22;65894;53.206;-6.108;2023-02-24T06:31:18;19.13;53.83
76956;DHT22;65894;53.206;-6.108;2023-02-24T06:33:46;19.14;53.69
76956;DHT22;65894;53.206;-6.108;2023-02-24T06:36:12;19.14;53.80
76956;DHT22;65894;53.206;-6.108;2023-02-24T06:38:41;19.13;53.76
76956;DHT22;65894;53.206;-6.108;2023-02-24T06:41:07;19.12;53.68
76956;DHT22;65894;53.206;-6.108;2023-02-24T06:43:37;19.10;53.70
76956;DHT22;65894;53.206;-6.108;2023-02-24T06:46:04;19.12;53.68
76956;DHT22;65894;53.206;-6.108;2023-02-24T06:48:30;19.12;53.94
76956;DHT22;65894;53.206;-6.108;2023-02-24T06:51:05;19.10;53.75
76956;DHT22;65894;53.206;-6.108;2023-02-24T06:53:33;19.12;53.62
76956;DHT22;65894;53.206;-6.108;2023-02-24T06:56:06;19.12;53.71
76956;DHT22;65894;53.206;-6.108;2023-02-24T06:58:43;19.09;53.84
76956;DHT22;65894;53.206;-6.108;2023-02-24T07:01:11;19.09;53.63
76956;DHT22;65894;53.206;-6.108;2023-02-24T07:03:38;19.12;53.83
76956;DHT22;65894;53.206;-6.108;2023-02-24T07:06:07;19.12;53.98
76956;DHT22;65894;53.206;-6.108;2023-02-24T07:08:46;19.10;53.82
76956;DHT22;65894;53.206;-6.108;2023-02-24T07:11:12;19.06;54.01
76956;DHT22;65894;53.206;-6.108;2023-02-24T07:13:42;19.06;53.80
76956;DHT22;65894;53.206;-6.108;2023-02-24T07:16:08;19.10;53.81
76956;DHT22;65894;53.206;-6.108;2023-02-24T07:18:37;19.09;53.76
76956;DHT22;65894;53.206;-6.108;2023-02-24T07:21:05;19.06;53.72
76956;DHT22;65894;53.206;-6.108;2023-02-24T07:23:39;19.07;53.80
76956;DHT22;65894;53.206;-6.108;2023-02-24T07:26:17;19.07;53.97
76956;DHT22;65894;53.206;-6.108;2023-02-24T07:28:44;19.07;53.83
76956;DHT22;65894;53.206;-6.108;2023-02-24T07:31:12;19.07;53.94
76956;DHT22;65894;53.206;-6.108;2023-02-24T07:33:39;19.07;53.85
76956;DHT22;65894;53.206;-6.108;2023-02-24T07:36:07;19.09;53.78
76956;DHT22;65894;53.206;-6.108;2023-02-24T07:38:40;19.06;53.65
76956;DHT22;65894;53.206;-6.108;2023-02-24T07:41:07;19.07;53.63
76956;DHT22;65894;53.206;-6.108;2023-02-24T07:43:36;19.04;53.61
76956;DHT22;65894;53.206;-6.108;2023-02-24T07:46:15;19.04;53.56
76956;DHT22;65894;53.206;-6.108;2023-02-24T07:48:43;19.03;53.54
76956;DHT22;65894;53.206;-6.108;2023-02-24T07:51:10;19.02;53.47
76956;DHT22;65894;53.206;-6.108;2023-02-24T07:53:39;19.03;53.57
76956;DHT22;65894;53.206;-6.108;2023-02-24T07:56:06;19.02;53.75
76956;DHT22;65894;53.206;-6.108;2023-02-24T07:58:47;19.02;53.61
76956;DHT22;65894;53.206;-6.108;2023-02-24T08:01:17;19.02;53.72
76956;DHT22;65894;53.206;-6.108;2023-02-24T08:04:05;19.03;53.61
76956;DHT22;65894;53.206;-6.108;2023-02-24T08:06:38;19.06;53.63
76956;DHT22;65894;53.206;-6.108;2023-02-24T08:09:13;19.02;53.98
76956;DHT22;65894;53.206;-6.108;2023-02-24T08:11:45;19.02;53.88
76956;DHT22;65894;53.206;-6.108;2023-02-24T08:14:12;19.02;53.88
76956;DHT22;65894;53.206;-6.108;2023-02-24T08:16:42;19.03;53.84
76956;DHT22;65894;53.206;-6.108;2023-02-24T08:19:13;19.00;53.92
76956;DHT22;65894;53.206;-6.108;2023-02-24T08:21:45;19.02;53.77
76956;DHT22;65894;53.206;-6.108;2023-02-24T08:24:24;19.02;53.82
76956;DHT22;65894;53.206;-6.108;2023-02-24T08:26:55;19.00;53.89
76956;DHT22;65894;53.206;-6.108;2023-02-24T08:29:37;18.99;53.92
76956;DHT22;65894;53.206;-6.108;2023-02-24T08:32:37;18.99;53.86
76956;DHT22;65894;53.206;-6.108;2023-02-24T08:35:06;19.00;53.91
76956;DHT22;65894;53.206;-6.108;2023-02-24T08:37:43;19.02;53.74
76956;DHT22;65894;53.206;-6.108;2023-02-24T08:40:24;19.00;54.01
76956;DHT22;65894;53.206;-6.108;2023-02-24T08:43:10;19.00;53.84
76956;DHT22;65894;53.206;-6.108;2023-02-24T08:51:31;19.00;54.03
76956;DHT22;65894;53.206;-6.108;2023-02-24T08:54:07;18.99;54.05
76956;DHT22;65894;53.206;-6.108;2023-02-24T08:56:43;19.00;53.94
76956;DHT22;65894;53.206;-6.108;2023-02-24T08:59:16;19.02;54.01
76956;DHT22;65894;53.206;-6.108;2023-02-24T09:02:04;18.99;53.93
76956;DHT22;65894;53.206;-6.108;2023-02-24T09:09:45;18.98;53.98
76956;DHT22;65894;53.206;-6.108;2023-02-24T09:12:12;19.03;54.08
76956;DHT22;65894;53.206;-6.108;2023-02-24T09:14:48;19.00;53.95
76956;DHT22;65894;53.206;-6.108;2023-02-24T09:17:14;19.00;54.31
76956;DHT22;65894;53.206;-6.108;2023-02-24T09:19:49;18.99;54.01
76956;DHT22;65894;53.206;-6.108;2023-02-24T09:22:20;18.99;54.11
76956;DHT22;65894;53.206;-6.108;2023-02-24T09:25:21;18.98;54.24
76956;DHT22;65894;53.206;-6.108;2023-02-24T09:28:03;18.98;54.03
76956;DHT22;65894;53.206;-6.108;2023-02-24T09:30:36;18.99;53.99
76956;DHT22;65894;53.206;-6.108;2023-02-24T09:33:07;18.99;53.85
76956;DHT22;65894;53.206;-6.108;2023-02-24T09:35:35;18.98;54.13
76956;DHT22;65894;53.206;-6.108;2023-02-24T09:38:06;18.98;53.85
76956;DHT22;65894;53.206;-6.108;2023-02-24T09:40:37;18.99;53.95
76956;DHT22;65894;53.206;-6.108;2023-02-24T09:43:19;18.95;53.92
76956;DHT22;65894;53.206;-6.108;2023-02-24T09:45:51;18.96;53.94
76956;DHT22;65894;53.206;-6.108;2023-02-24T09:48:24;18.96;54.00
76956;DHT22;65894;53.206;-6.108;2023-02-24T09:50:51;18.98;54.00
76956;DHT22;65894;53.206;-6.108;2023-02-24T09:53:28;18.98;54.07
76956;DHT22;65894;53.206;-6.108;2023-02-24T09:56:15;18.98;54.09
76956;DHT22;65894;53.206;-6.108;2023-02-24T09:59:17;18.98;54.08
76956;DHT22;65894;53.206;-6.108;2023-02-24T10:07:15;18.96;54.09
76956;DHT22;65894;53.206;-6.108;2023-02-24T10:14:51;18.95;54.00
76956;DHT22;65894;53.206;-6.108;2023-02-24T10:17:19;18.96;54.20
76956;DHT22;65894;53.206;-6.108;2023-02-24T10:20:31;18.95;54.06
76956;DHT22;65894;53.206;-6.108;2023-02-24T10:26:21;18.95;54.03
76956;DHT22;65894;53.206;-6.108;2023-02-24T10:32:38;18.95;54.36
76956;DHT22;65894;53.206;-6.108;2023-02-24T10:35:14;18.95;54.31
76956;DHT22;65894;53.206;-6.108;2023-02-24T10:37:41;18.95;54.29
76956;DHT22;65894;53.206;-6.108;2023-02-24T10:40:07;18.93;54.10
76956;DHT22;65894;53.206;-6.108;2023-02-24T10:42:39;18.92;54.10
76956;DHT22;65894;53.206;-6.108;2023-02-24T10:45:20;18.95;54.15
76956;DHT22;65894;53.206;-6.108;2023-02-24T10:47:53;18.95;54.26
76956;DHT22;65894;53.206;-6.108;2023-02-24T10:50:25;18.95;54.03
76956;DHT22;65894;53.206;-6.108;2023-02-24T10:52:52;18.93;54.22
76956;DHT22;65894;53.206;-6.108;2023-02-24T10:55:44;18.93;54.00
76956;DHT22;65894;53.206;-6.108;2023-02-24T11:01:37;18.95;54.18
76956;DHT22;65894;53.206;-6.108;2023-02-24T11:04:15;18.93;54.28
76956;DHT22;65894;53.206;-6.108;2023-02-24T11:07:12;18.92;54.24
76956;DHT22;65894;53.206;-6.108;2023-02-24T11:10:00;18.96;54.24
76956;DHT22;65894;53.206;-6.108;2023-02-24T11:12:36;18.92;54.20
76956;DHT22;65894;53.206;-6.108;2023-02-24T11:15:31;18.93;54.37
76956;DHT22;65894;53.206;-6.108;2023-02-24T11:18:20;18.92;54.16
76956;DHT22;65894;53.206;-6.108;2023-02-24T11:20:51;18.93;54.24
76956;DHT22;65894;53.206;-6.108;2023-02-24T11:23:28;18.93;54.12
76956;DHT22;65894;53.206;-6.108;2023-02-24T11:26:00;18.93;54.22
76956;DHT22;65894;53.206;-6.108;2023-02-24T11:28:45;18.92;54.20
76956;DHT22;65894;53.206;-6.108;2023-02-24T11:34:26;18.91;54.28
76956;DHT22;65894;53.206;-6.108;2023-02-24T11:37:11;18.91;54.28
76956;DHT22;65894;53.206;-6.108;2023-02-24T11:40:09;18.92;54.17
76956;DHT22;65894;53.206;-6.108;2023-02-24T11:43:12;18.92;54.16
76956;DHT22;65894;53.206;-6.108;2023-02-24T11:46:06;18.89;54.12
76956;DHT22;65894;53.206;-6.108;2023-02-24T11:48:44;18.93;54.29
76956;DHT22;65894;53.206;-6.108;2023-02-24T11:51:31;18.89;54.22
76956;DHT22;65894;53.206;-6.108;2023-02-24T11:54:05;18.92;54.24
76956;DHT22;65894;53.206;-6.108;2023-02-24T11:56:38;18.92;54.51
76956;DHT22;65894;53.206;-6.108;2023-02-24T12:04:49;18.91;54.34
76956;DHT22;65894;53.206;-6.108;2023-02-24T12:10:15;18.91;54.54
76956;DHT22;65894;53.206;-6.108;2023-02-24T12:15:37;18.91;54.45
76956;DHT22;65894;53.206;-6.108;2023-02-24T12:20:53;18.89;54.41
76956;DHT22;65894;53.206;-6.108;2023-02-24T12:23:33;18.91;54.45
76956;DHT22;65894;53.206;-6.108;2023-02-24T12:26:06;18.89;54.51
76956;DHT22;65894;53.206;-6.108;2023-02-24T12:31:48;18.86;54.66
76956;DHT22;65894;53.206;-6.108;2023-02-24T12:37:27;18.88;54.53
76956;DHT22;65894;53.206;-6.108;2023-02-24T12:40:11;18.88;54.54
76956;DHT22;65894;53.206;-6.108;2023-02-24T12:46:07;18.89;54.45
76956;DHT22;65894;53.206;-6.108;2023-02-24T12:51:27;18.86;54.37
76956;DHT22;65894;53.206;-6.108;2023-02-24T12:59:40;18.88;54.46
76956;DHT22;65894;53.206;-6.108;2023-02-24T13:02:35;18.86;54.67
76956;DHT22;65894;53.206;-6.108;2023-02-24T13:05:29;18.88;54.52
76956;DHT22;65894;53.206;-6.108;2023-02-24T13:13:48;18.86;54.52
76956;DHT22;65894;53.206;-6.108;2023-02-24T13:16:13;18.85;54.73
76956;DHT22;65894;53.206;-6.108;2023-02-24T13:18:39;18.86;54.50
76956;DHT22;65894;53.206;-6.108;2023-02-24T13:23:41;18.86;54.65
76956;DHT22;65894;53.206;-6.108;2023-02-24T13:26:07;18.86;54.67
76956;DHT22;65894;53.206;-6.108;2023-02-24T13:28:34;18.85;54.70
76956;DHT22;65894;53.206;-6.108;2023-02-24T13:33:33;18.85;54.71
76956;DHT22;65894;53.206;-6.108;2023-02-24T13:36:19;18.85;54.62
76956;DHT22;65894;53.206;-6.108;2023-02-24T13:39:17;18.85;54.74
76956;DHT22;65894;53.206;-6.108;2023-02-24T13:41:44;18.83;54.55
76956;DHT22;65894;53.206;-6.108;2023-02-24T13:44:21;18.83;54.82
76956;DHT22;65894;53.206;-6.108;2023-02-24T13:50:02;18.83;54.71
76956;DHT22;65894;53.206;-6.108;2023-02-24T13:58:48;18.85;54.92
76956;DHT22;65894;53.206;-6.108;2023-02-24T14:01:12;18.85;54.50
76956;DHT22;65894;53.206;-6.108;2023-02-24T14:03:41;18.85;54.61
76956;DHT22;65894;53.206;-6.108;2023-02-24T14:06:25;18.83;54.91
76956;DHT22;65894;53.206;-6.108;2023-02-24T14:08:58;18.83;54.73
76956;DHT22;65894;53.206;-6.108;2023-02-24T14:11:27;18.82;54.83
76956;DHT22;65894;53.206;-6.108;2023-02-24T14:13:56;18.83;54.96
76956;DHT22;65894;53.206;-6.108;2023-02-24T14:16:25;18.83;54.77
76956;DHT22;65894;53.206;-6.108;2023-02-24T14:18:56;18.82;54.75
76956;DHT22;65894;53.206;-6.108;2023-02-24T14:21:25;18.83;54.88
76956;DHT22;65894;53.206;-6.108;2023-02-24T14:23:59;18.81;54.88
76956;DHT22;65894;53.206;-6.108;2023-02-24T14:26:25;18.82;54.93
76956;DHT22;65894;53.206;-6.108;2023-02-24T14:28:55;18.82;54.76
76956;DHT22;65894;53.206;-6.108;2023-02-24T14:31:23;18.81;54.87
76956;DHT22;65894;53.206;-6.108;2023-02-24T14:34:01;18.82;54.88
76956;DHT22;65894;53.206;-6.108;2023-02-24T14:36:33;18.81;54.62
76956;DHT22;65894;53.206;-6.108;2023-02-24T14:39:15;18.81;54.86
76956;DHT22;65894;53.206;-6.108;2023-02-24T14:41:42;18.82;55.21
76956;DHT22;65894;53.206;-6.108;2023-02-24T14:46:49;18.81;55.14
76956;DHT22;65894;53.206;-6.108;2023-02-24T14:49:23;18.79;54.81
76956;DHT22;65894;53.206;-6.108;2023-02-24T14:51:55;18.79;54.93
76956;DHT22;65894;53.206;-6.108;2023-02-24T14:54:33;18.77;54.75
76956;DHT22;65894;53.206;-6.108;2023-02-24T14:57:00;18.81;54.65
76956;DHT22;65894;53.206;-6.108;2023-02-24T14:59:31;18.81;54.96
76956;DHT22;65894;53.206;-6.108;2023-02-24T15:01:59;18.79;54.90
76956;DHT22;65894;53.206;-6.108;2023-02-24T15:04:40;18.81;54.67
76956;DHT22;65894;53.206;-6.108;2023-02-24T15:07:17;18.81;54.75
76956;DHT22;65894;53.206;-6.108;2023-02-24T15:09:44;18.81;55.05
76956;DHT22;65894;53.206;-6.108;2023-02-24T15:15:12;18.77;54.98
76956;DHT22;65894;53.206;-6.108;2023-02-24T15:17:42;18.77;54.97
76956;DHT22;65894;53.206;-6.108;2023-02-24T15:22:48;18.79;55.00
76956;DHT22;65894;53.206;-6.108;2023-02-24T15:27:58;18.77;54.89
76956;DHT22;65894;53.206;-6.108;2023-02-24T15:30:27;18.79;54.82
76956;DHT22;65894;53.206;-6.108;2023-02-24T15:33:24;18.81;54.76
76956;DHT22;65894;53.206;-6.108;2023-02-24T15:35:52;18.79;54.84
76956;DHT22;65894;53.206;-6.108;2023-02-24T15:38:24;18.79;54.92
76956;DHT22;65894;53.206;-6.108;2023-02-24T15:40:55;18.77;55.18
76956;DHT22;65894;53.206;-6.108;2023-02-24T15:46:32;18.79;55.31
76956;DHT22;65894;53.206;-6.108;2023-02-24T15:48:58;18.81;55.14
76956;DHT22;65894;53.206;-6.108;2023-02-24T15:54:02;18.76;55.21
76956;DHT22;65894;53.206;-6.108;2023-02-24T15:56:31;18.76;54.93
76956;DHT22;65894;53.206;-6.108;2023-02-24T15:58:57;18.76;55.07
76956;DHT22;65894;53.206;-6.108;2023-02-24T16:01:27;18.75;55.06
76956;DHT22;65894;53.206;-6.108;2023-02-24T16:03:53;18.72;55.15
76956;DHT22;65894;53.206;-6.108;2023-02-24T16:06:20;18.76;54.88
76956;DHT22;65894;53.206;-6.108;2023-02-24T16:08:47;18.75;54.97
76956;DHT22;65894;53.206;-6.108;2023-02-24T16:11:15;18.73;54.85
76956;DHT22;65894;53.206;-6.108;2023-02-24T16:13:56;18.76;54.50
76956;DHT22;65894;53.206;-6.108;2023-02-24T16:16:22;18.77;54.87
76956;DHT22;65894;53.206;-6.108;2023-02-24T16:18:49;18.76;54.76
76956;DHT22;65894;53.206;-6.108;2023-02-24T16:21:15;18.75;54.86
76956;DHT22;65894;53.206;-6.108;2023-02-24T16:23:41;18.75;54.71
76956;DHT22;65894;53.206;-6.108;2023-02-24T16:26:18;18.76;54.73
76956;DHT22;65894;53.206;-6.108;2023-02-24T16:28:50;18.76;54.70
76956;DHT22;65894;53.206;-6.108;2023-02-24T16:31:16;18.77;54.74
76956;DHT22;65894;53.206;-6.108;2023-02-24T16:33:42;18.72;54.73
76956;DHT22;65894;53.206;-6.108;2023-02-24T16:36:11;18.73;54.87
76956;DHT22;65894;53.206;-6.108;2023-02-24T16:38:38;18.75;54.70
76956;DHT22;65894;53.206;-6.108;2023-02-24T16:41:04;18.75;54.69
76956;DHT22;65894;53.206;-6.108;2023-02-24T16:43:30;18.72;54.68
76956;DHT22;65894;53.206;-6.108;2023-02-24T16:46:03;18.73;54.69
76956;DHT22;65894;53.206;-6.108;2023-02-24T16:48:30;18.75;54.95
76956;DHT22;65894;53.206;-6.108;2023-02-24T16:50:59;18.76;55.00
76956;DHT22;65894;53.206;-6.108;2023-02-24T16:53:25;18.73;54.86
76956;DHT22;65894;53.206;-6.108;2023-02-24T16:55:51;18.73;54.81
76956;DHT22;65894;53.206;-6.108;2023-02-24T16:58:17;18.73;54.78
76956;DHT22;65894;53.206;-6.108;2023-02-24T17:00:45;18.73;54.90
76956;DHT22;65894;53.206;-6.108;2023-02-24T17:03:22;18.73;55.12
76956;DHT22;65894;53.206;-6.108;2023-02-24T17:05:48;18.69;55.09
76956;DHT22;65894;53.206;-6.108;2023-02-24T17:08:14;18.72;54.87
76956;DHT22;65894;53.206;-6.108;2023-02-24T17:10:41;18.72;54.64
76956;DHT22;65894;53.206;-6.108;2023-02-24T17:13:12;18.73;54.88
76956;DHT22;65894;53.206;-6.108;2023-02-24T17:15:38;18.72;54.91
76956;DHT22;65894;53.206;-6.108;2023-02-24T17:18:05;18.69;54.78
76956;DHT22;65894;53.206;-6.108;2023-02-24T17:20:30;18.69;55.01
76956;DHT22;65894;53.206;-6.108;2023-02-24T17:22:56;18.71;55.03
76956;DHT22;65894;53.206;-6.108;2023-02-24T17:25:25;18.71;54.94
76956;DHT22;65894;53.206;-6.108;2023-02-24T17:27:52;18.71;54.80
76956;DHT22;65894;53.206;-6.108;2023-02-24T17:30:21;18.71;55.22
76956;DHT22;65894;53.206;-6.108;2023-02-24T17:32:47;18.71;54.98
76956;DHT22;65894;53.206;-6.108;2023-02-24T17:35:13;18.69;54.87
76956;DHT22;65894;53.206;-6.108;2023-02-24T17:37:38;18.71;54.97
76956;DHT22;65894;53.206;-6.108;2023-02-24T17:40:04;18.71;54.95
76956;DHT22;65894;53.206;-6.108;2023-02-24T17:42:30;18.69;54.94
76956;DHT22;65894;53.206;-6.108;2023-02-24T17:44:55;18.71;55.12
76956;DHT22;65894;53.206;-6.108;2023-02-24T17:47:21;18.68;54.91
76956;DHT22;65894;53.206;-6.108;2023-02-24T17:49:47;18.68;55.00
76956;DHT22;65894;53.206;-6.108;2023-02-24T17:52:12;18.69;54.80
76956;DHT22;65894;53.206;-6.108;2023-02-24T17:54:38;18.68;55.06
76956;DHT22;65894;53.206;-6.108;2023-02-24T17:57:03;18.69;54.82
76956;DHT22;65894;53.206;-6.108;2023-02-24T17:59:29;18.66;54.96